Terminal Aerodrome Forecast
Issued by NWS

Home | Current Version | Previous Version | Text Only | Print | Product List | Glossary Off
Versions: 1 2 3 4 5 6 7 8 9 10 11 12 13 14 15

965
FTUS43 KBIS 250521
TAFMOT
TAF
KMOT 250521Z 2506/2606 22004KT P6SM FEW080
     FM251400 16005KT P6SM SKC
     FM260000 02007KT P6SM SCT080=

USA.gov is the U.S. government's official web portal to all federal, state and local government web resources and services.